Station Historical Data
Daily Summary for January 9, 2017 Units:  English    Metric   Both
Next Day »
Daily Weekly Monthly Yearly Custom
  High: Low: Average:
Temperature: 49.4 °F 41.5 °F 43.5 °F
Dew Point: 48.6 °F 40.5 °F 42.4 °F
Humidity: 97% 96% 96%
Wind Speed: 26.0mph 0.0mph 8.2mph
Wind Gust: 30.0mph - -
Wind- - SSW
Pressure: 30.12 in 29.90 in -
Precipitation: 0.00 in    
Historical Graphs
 
 
Tabular Data for January 9, 2017
Time Temperature Dew Point Pressure Wind Wind Speed Wind Gust Humidity Rainfall Rate (Hourly) solar Conditions
00:02 49.4 °F 48.6 °F 29.93 in SW 10.0 mph 15.0 mph 97% 0.00 in 0.00 W/m2
00:07 49.3 °F 48.5 °F 29.93 in SW 8.0 mph 17.0 mph 97% 0.00 in 0.00 W/m2
00:12 49.2 °F 48.1 °F 29.93 in WSW 11.0 mph 11.0 mph 96% 0.00 in 0.00 W/m2
00:17 49.1 °F 48.3 °F 29.93 in SW 17.0 mph 17.0 mph 97% 0.00 in 0.00 W/m2
00:22 49.1 °F 48.3 °F 29.93 in SW 12.0 mph 17.0 mph 97% 0.00 in 0.00 W/m2
00:27 49.1 °F 48.3 °F 29.93 in SW 12.0 mph 12.0 mph 97% 0.00 in 0.00 W/m2
00:32 49.1 °F 48.3 °F 29.93 in South 8.0 mph 11.0 mph 97% 0.00 in 0.00 W/m2
00:37 49.1 °F 48.3 °F 29.93 in SW 16.0 mph 16.0 mph 97% 0.00 in 0.00 W/m2
00:42 49.1 °F 48.3 °F 29.93 in South 16.0 mph 21.0 mph 97% 0.00 in 0.00 W/m2
00:47 49.1 °F 48.3 °F 29.93 in SW 14.0 mph 17.0 mph 97% 0.00 in 0.00 W/m2
00:52 49.0 °F 48.2 °F 29.93 in SSE 8.0 mph 15.0 mph 97% 0.00 in 0.00 W/m2
00:57 49.0 °F 48.2 °F 29.92 in SW 12.0 mph 18.0 mph 97% 0.00 in 0.00 W/m2
01:02 48.9 °F 48.1 °F 29.92 in South 6.0 mph 11.0 mph 97% 0.00 in 0.00 W/m2
01:07 48.9 °F 48.1 °F 29.92 in SW 5.0 mph 19.0 mph 97% 0.00 in 0.00 W/m2
01:12 48.8 °F 48.0 °F 29.91 in South 9.0 mph 13.0 mph 97% 0.00 in 0.00 W/m2
01:17 48.8 °F 48.0 °F 29.91 in South 8.0 mph 20.0 mph 97% 0.00 in 0.00 W/m2
01:22 48.7 °F 47.9 °F 29.91 in SSW 9.0 mph 16.0 mph 97% 0.04 in 0.00 W/m2
01:27 48.7 °F 47.9 °F 29.91 in South 10.0 mph 21.0 mph 97% 0.04 in 0.00 W/m2
01:32 48.7 °F 47.9 °F 29.90 in SSE 14.0 mph 20.0 mph 97% 0.04 in 0.00 W/m2
01:37 48.7 °F 47.9 °F 29.90 in SW 9.0 mph 22.0 mph 97% 0.00 in 0.00 W/m2
01:42 48.7 °F 47.9 °F 29.91 in SW 2.0 mph 16.0 mph 97% 0.00 in 0.00 W/m2
01:47 48.6 °F 47.8 °F 29.90 in South 14.0 mph 21.0 mph 97% 0.00 in 0.00 W/m2
01:52 48.7 °F 47.9 °F 29.91 in South 11.0 mph 21.0 mph 97% 0.00 in 0.00 W/m2
01:57 48.7 °F 47.9 °F 29.90 in SW 10.0 mph 16.0 mph 97% 0.25 in 0.00 W/m2
02:02 48.7 °F 47.9 °F 29.90 in South 12.0 mph 21.0 mph 97% 0.25 in 0.00 W/m2
02:07 48.5 °F 47.7 °F 29.91 in SSW 3.0 mph 13.0 mph 97% 0.48 in 0.00 W/m2
02:12 48.5 °F 47.7 °F 29.92 in SW 13.0 mph 15.0 mph 97% 2.98 in 0.00 W/m2
02:17 48.3 °F 47.5 °F 29.92 in WSW 10.0 mph 24.0 mph 97% 0.83 in 0.00 W/m2
02:22 48.1 °F 47.0 °F 29.92 in SW 4.0 mph 17.0 mph 96% 0.23 in 0.00 W/m2
02:27 47.8 °F 46.7 °F 29.92 in SW 7.0 mph 18.0 mph 96% 0.08 in 0.00 W/m2
02:32 47.7 °F 46.6 °F 29.93 in West 9.0 mph 14.0 mph 96% 0.06 in 0.00 W/m2
02:37 47.6 °F 46.5 °F 29.92 in West 10.0 mph 16.0 mph 96% 0.06 in 0.00 W/m2
02:42 47.4 °F 46.3 °F 29.93 in WNW 5.0 mph 12.0 mph 96% 0.05 in 0.00 W/m2
02:47 47.2 °F 46.1 °F 29.92 in WSW 12.0 mph 18.0 mph 96% 0.00 in 0.00 W/m2
02:52 47.1 °F 46.0 °F 29.93 in WSW 8.0 mph 16.0 mph 96% 0.00 in 0.00 W/m2
02:57 47.0 °F 45.9 °F 29.93 in WSW 10.0 mph 10.0 mph 96% 0.00 in 0.00 W/m2
03:02 46.7 °F 45.6 °F 29.93 in WSW 8.0 mph 14.0 mph 96% 0.00 in 0.00 W/m2
03:07 46.5 °F 45.4 °F 29.93 in West 1.0 mph 13.0 mph 96% 0.00 in 0.00 W/m2
03:12 46.2 °F 45.1 °F 29.92 in WSW 10.0 mph 10.0 mph 96% 0.00 in 0.00 W/m2
03:18 46.0 °F 44.9 °F 29.94 in WSW 12.0 mph 16.0 mph 96% 0.00 in 0.00 W/m2
03:23 45.8 °F 44.7 °F 29.94 in WSW 10.0 mph 17.0 mph 96% 0.00 in 0.00 W/m2
03:28 45.6 °F 44.5 °F 29.94 in WSW 9.0 mph 12.0 mph 96% 0.00 in 0.00 W/m2
03:33 45.6 °F 44.5 °F 29.94 in SW 5.0 mph 15.0 mph 96% 0.00 in 0.00 W/m2
03:38 45.6 °F 44.5 °F 29.94 in SW 6.0 mph 16.0 mph 96% 0.00 in 0.00 W/m2
03:43 45.6 °F 44.5 °F 29.94 in SW 2.0 mph 10.0 mph 96% 0.00 in 0.00 W/m2
03:48 45.7 °F 44.6 °F 29.94 in SSW 10.0 mph 13.0 mph 96% 0.04 in 0.00 W/m2
03:53 45.6 °F 44.5 °F 29.94 in West 4.0 mph 11.0 mph 96% 0.06 in 0.00 W/m2
03:58 45.5 °F 44.4 °F 29.94 in SSW 17.0 mph 17.0 mph 96% 0.06 in 0.00 W/m2
04:03 45.5 °F 44.4 °F 29.94 in SW 5.0 mph 15.0 mph 96% 0.06 in 0.00 W/m2
04:08 45.4 °F 44.3 °F 29.94 in West 6.0 mph 12.0 mph 96% 0.04 in 0.00 W/m2
04:13 45.3 °F 44.2 °F 29.94 in WSW 3.0 mph 12.0 mph 96% 0.00 in 0.00 W/m2
04:18 45.2 °F 44.1 °F 29.94 in SSW 6.0 mph 15.0 mph 96% 0.00 in 0.00 W/m2
04:23 45.1 °F 44.0 °F 29.95 in SW 9.0 mph 18.0 mph 96% 0.00 in 0.00 W/m2
04:28 44.9 °F 43.8 °F 29.95 in WSW 10.0 mph 12.0 mph 96% 0.00 in 0.00 W/m2
04:33 44.8 °F 43.7 °F 29.95 in SW 9.0 mph 19.0 mph 96% 0.00 in 0.00 W/m2
04:38 44.8 °F 43.7 °F 29.95 in WNW 3.0 mph 12.0 mph 96% 0.00 in 0.00 W/m2
04:43 44.7 °F 43.6 °F 29.96 in Calm   10.0 mph 96% 0.00 in 0.00 W/m2
04:48 44.8 °F 43.7 °F 29.96 in WSW 10.0 mph 11.0 mph 96% 0.00 in 0.00 W/m2
04:53 44.6 °F 43.5 °F 29.96 in SW 11.0 mph 13.0 mph 96% 0.00 in 0.00 W/m2
04:58 44.4 °F 43.3 °F 29.96 in SSW 3.0 mph 15.0 mph 96% 0.00 in 0.00 W/m2
05:03 44.3 °F 43.2 °F 29.97 in West 11.0 mph 17.0 mph 96% 0.00 in 0.00 W/m2
05:08 44.2 °F 43.1 °F 29.97 in WSW 8.0 mph 17.0 mph 96% 0.00 in 0.00 W/m2
05:13 44.0 °F 42.9 °F 29.97 in Calm   11.0 mph 96% 0.00 in 0.00 W/m2
05:19 44.0 °F 42.9 °F 29.98 in WSW 6.0 mph 14.0 mph 96% 0.00 in 0.00 W/m2
05:24 44.0 °F 42.9 °F 29.98 in WSW 4.0 mph 12.0 mph 96% 0.00 in 0.00 W/m2
05:29 44.0 °F 42.9 °F 29.99 in SSW 1.0 mph 10.0 mph 96% 0.00 in 0.00 W/m2
05:34 44.0 °F 42.9 °F 29.99 in Calm   16.0 mph 96% 0.00 in 0.00 W/m2
05:39 44.0 °F 42.9 °F 29.99 in SW 7.0 mph 12.0 mph 96% 0.00 in 0.00 W/m2
05:44 43.9 °F 42.8 °F 29.99 in SSW 4.0 mph 9.0 mph 96% 0.00 in 0.00 W/m2
05:49 43.8 °F 42.7 °F 29.99 in SW 5.0 mph 9.0 mph 96% 0.00 in 0.00 W/m2
05:54 43.8 °F 42.7 °F 29.99 in SW 6.0 mph 10.0 mph 96% 0.00 in 0.00 W/m2
05:59 43.7 °F 42.6 °F 29.98 in South 2.0 mph 10.0 mph 96% 0.00 in 0.00 W/m2
06:04 43.6 °F 42.5 °F 29.99 in South 11.0 mph 11.0 mph 96% 0.00 in 0.00 W/m2
06:09 43.5 °F 42.4 °F 29.99 in South 5.0 mph 10.0 mph 96% 0.00 in 0.00 W/m2
06:14 43.4 °F 42.3 °F 29.98 in SSW 5.0 mph 11.0 mph 96% 0.00 in 0.00 W/m2
06:19 43.4 °F 42.3 °F 29.99 in South 6.0 mph 13.0 mph 96% 0.00 in 0.00 W/m2
06:24 43.4 °F 42.3 °F 29.99 in South 11.0 mph 12.0 mph 96% 0.00 in 0.00 W/m2
06:29 43.3 °F 42.2 °F 29.99 in Calm   5.0 mph 96% 0.00 in 0.00 W/m2
06:34 43.3 °F 42.2 °F 30.00 in South 8.0 mph 12.0 mph 96% 0.00 in 0.00 W/m2
06:39 43.2 °F 42.1 °F 30.00 in South 5.0 mph 11.0 mph 96% 0.00 in 0.00 W/m2
06:44 43.2 °F 42.1 °F 30.00 in South 11.0 mph 13.0 mph 96% 0.00 in 0.00 W/m2
06:49 43.2 °F 42.1 °F 30.00 in Calm   14.0 mph 96% 0.00 in 0.00 W/m2
06:54 43.1 °F 42.0 °F 30.00 in SSW 6.0 mph 14.0 mph 96% 0.00 in 0.00 W/m2
06:59 43.0 °F 41.9 °F 30.00 in SSW 3.0 mph 10.0 mph 96% 0.00 in 0.00 W/m2
07:04 42.9 °F 41.8 °F 30.00 in SSW 11.0 mph 13.0 mph 96% 0.00 in 0.00 W/m2
07:09 42.8 °F 41.7 °F 30.00 in South 8.0 mph 11.0 mph 96% 0.00 in 0.00 W/m2
07:14 42.7 °F 41.6 °F 30.01 in SSW 13.0 mph 14.0 mph 96% 0.00 in 0.00 W/m2
07:19 42.7 °F 41.6 °F 30.01 in South 5.0 mph 13.0 mph 96% 0.00 in 0.00 W/m2
07:24 42.6 °F 41.5 °F 30.01 in South 4.0 mph 11.0 mph 96% 0.00 in 0.00 W/m2
07:29 42.6 °F 41.5 °F 30.01 in South 5.0 mph 10.0 mph 96% 0.00 in 0.00 W/m2
07:34 42.6 °F 41.5 °F 30.01 in Calm   9.0 mph 96% 0.00 in 0.00 W/m2
07:39 42.6 °F 41.5 °F 30.02 in South 4.0 mph 12.0 mph 96% 0.00 in 0.00 W/m2
07:44 42.6 °F 41.5 °F 30.03 in SSW 5.0 mph 8.0 mph 96% 0.00 in 7.00 W/m2
07:49 42.5 °F 41.4 °F 30.03 in South 6.0 mph 10.0 mph 96% 0.00 in 9.00 W/m2
07:54 42.5 °F 41.4 °F 30.03 in South 5.0 mph 10.0 mph 96% 0.00 in 11.00 W/m2
07:59 42.5 °F 41.4 °F 30.03 in SSW 4.0 mph 12.0 mph 96% 0.00 in 9.00 W/m2
08:04 42.4 °F 41.3 °F 30.03 in SSE 6.0 mph 12.0 mph 96% 0.00 in 14.00 W/m2
08:09 42.4 °F 41.3 °F 30.03 in SE 6.0 mph 14.0 mph 96% 0.00 in 12.00 W/m2
08:14 42.4 °F 41.3 °F 30.04 in SSE 7.0 mph 15.0 mph 96% 0.00 in 19.00 W/m2
08:19 42.4 °F 41.3 °F 30.04 in South 7.0 mph 9.0 mph 96% 0.00 in 21.00 W/m2
08:24 42.4 °F 41.3 °F 30.05 in South 1.0 mph 7.0 mph 96% 0.00 in 21.00 W/m2
08:29 42.4 °F 41.3 °F 30.06 in SSE 8.0 mph 12.0 mph 96% 0.00 in 21.00 W/m2
08:34 42.3 °F 41.2 °F 30.05 in South 4.0 mph 9.0 mph 96% 0.00 in 28.00 W/m2
08:39 42.3 °F 41.2 °F 30.06 in South 7.0 mph 11.0 mph 96% 0.00 in 18.00 W/m2
08:44 42.3 °F 41.2 °F 30.06 in Calm   13.0 mph 96% 0.00 in 18.00 W/m2
08:49 42.3 °F 41.2 °F 30.06 in South 7.0 mph 13.0 mph 96% 0.00 in 23.00 W/m2
08:54 42.3 °F 41.2 °F 30.06 in SSW 4.0 mph 11.0 mph 96% 0.00 in 21.00 W/m2
08:59 42.3 °F 41.2 °F 30.07 in SSW 2.0 mph 13.0 mph 96% 0.00 in 25.00 W/m2
09:04 42.4 °F 41.3 °F 30.07 in South 5.0 mph 13.0 mph 96% 0.00 in 26.00 W/m2
09:09 42.3 °F 41.2 °F 30.07 in South 7.0 mph 12.0 mph 96% 0.00 in 25.00 W/m2
09:14 42.3 °F 41.2 °F 30.07 in South 8.0 mph 15.0 mph 96% 0.00 in 23.00 W/m2
09:19 42.3 °F 41.2 °F 30.07 in SSE 13.0 mph 13.0 mph 96% 0.00 in 42.00 W/m2
09:24 42.3 °F 41.2 °F 30.08 in South 10.0 mph 13.0 mph 96% 0.00 in 35.00 W/m2
09:29 42.2 °F 41.1 °F 30.08 in SSW 10.0 mph 17.0 mph 96% 0.00 in 62.00 W/m2
09:34 42.1 °F 41.0 °F 30.09 in South 7.0 mph 18.0 mph 96% 0.00 in 62.00 W/m2
09:39 42.1 °F 41.0 °F 30.09 in South 11.0 mph 14.0 mph 96% 0.00 in 62.00 W/m2
09:44 42.0 °F 40.9 °F 30.09 in Calm   12.0 mph 96% 0.00 in 40.00 W/m2
09:49 42.0 °F 40.9 °F 30.09 in SSW 8.0 mph 13.0 mph 96% 0.00 in 37.00 W/m2
09:54 42.0 °F 40.9 °F 30.09 in SSW 3.0 mph 17.0 mph 96% 0.00 in 88.00 W/m2
09:59 42.0 °F 40.9 °F 30.10 in SSW 2.0 mph 11.0 mph 96% 0.00 in 72.00 W/m2
10:04 41.9 °F 40.8 °F 30.10 in SSW 7.0 mph 15.0 mph 96% 0.00 in 56.00 W/m2
10:09 41.9 °F 40.8 °F 30.10 in SW 3.0 mph 16.0 mph 96% 0.00 in 39.00 W/m2
10:14 41.8 °F 40.8 °F 30.10 in Calm   15.0 mph 96% 0.00 in 98.00 W/m2
10:19 41.8 °F 40.8 °F 30.11 in SSW 11.0 mph 13.0 mph 96% 0.00 in 93.00 W/m2
10:24 41.8 °F 40.8 °F 30.10 in South 8.0 mph 9.0 mph 96% 0.00 in 72.00 W/m2
10:29 41.8 °F 40.8 °F 30.10 in SSE 7.0 mph 13.0 mph 96% 0.00 in 95.00 W/m2
10:35 41.7 °F 40.7 °F 30.11 in Calm   11.0 mph 96% 0.00 in 79.00 W/m2
10:40 41.7 °F 40.7 °F 30.10 in SSE 2.0 mph 12.0 mph 96% 0.00 in 105.00 W/m2
10:45 41.6 °F 40.5 °F 30.11 in SSW 11.0 mph 17.0 mph 96% 0.00 in 104.00 W/m2
10:50 41.6 °F 40.5 °F 30.11 in SSW 3.0 mph 14.0 mph 96% 0.00 in 118.00 W/m2
10:55 41.6 °F 40.5 °F 30.11 in SSE 8.0 mph 13.0 mph 96% 0.00 in 120.00 W/m2
11:00 41.6 °F 40.5 °F 30.12 in South 8.0 mph 10.0 mph 96% 0.00 in 107.00 W/m2
11:05 41.6 °F 40.5 °F 30.12 in SSE 11.0 mph 12.0 mph 96% 0.00 in 100.00 W/m2
11:10 41.6 °F 40.5 °F 30.11 in South 9.0 mph 13.0 mph 96% 0.00 in 105.00 W/m2
11:15 41.6 °F 40.5 °F 30.11 in SSE 8.0 mph 13.0 mph 96% 0.00 in 121.00 W/m2
11:20 41.5 °F 40.5 °F 30.11 in South 1.0 mph 10.0 mph 96% 0.00 in 113.00 W/m2
11:25 41.5 °F 40.5 °F 30.11 in SSE 7.0 mph 11.0 mph 96% 0.00 in 109.00 W/m2
11:30 41.6 °F 40.5 °F 30.11 in SSE 9.0 mph 13.0 mph 96% 0.00 in 132.00 W/m2
11:35 41.6 °F 40.5 °F 30.11 in South 11.0 mph 12.0 mph 96% 0.00 in 120.00 W/m2
11:40 41.6 °F 40.5 °F 30.11 in Calm   9.0 mph 96% 0.00 in 69.00 W/m2
11:45 41.6 °F 40.5 °F 30.10 in South 7.0 mph 11.0 mph 96% 0.00 in 100.00 W/m2
11:50 41.6 °F 40.5 °F 30.10 in Calm   11.0 mph 96% 0.00 in 98.00 W/m2
11:55 41.6 °F 40.5 °F 30.09 in SE 9.0 mph 13.0 mph 96% 0.00 in 90.00 W/m2
12:00 41.5 °F 40.5 °F 30.09 in Calm   10.0 mph 96% 0.00 in 114.00 W/m2
12:05 41.6 °F 40.5 °F 30.08 in SSE 4.0 mph 11.0 mph 96% 0.00 in 114.00 W/m2
12:10 41.6 °F 40.5 °F 30.08 in SSE 5.0 mph 12.0 mph 96% 0.00 in 72.00 W/m2
12:15 41.7 °F 40.7 °F 30.08 in South 7.0 mph 11.0 mph 96% 0.00 in 83.00 W/m2
12:20 41.8 °F 40.8 °F 30.07 in SSE 5.0 mph 10.0 mph 96% 0.00 in 102.00 W/m2
12:25 41.8 °F 40.8 °F 30.07 in Calm   8.0 mph 96% 0.00 in 91.00 W/m2
12:30 41.8 °F 40.8 °F 30.06 in South 5.0 mph 12.0 mph 96% 0.00 in 65.00 W/m2
12:35 41.8 °F 40.8 °F 30.06 in South 7.0 mph 10.0 mph 96% 0.00 in 65.00 W/m2
12:40 41.9 °F 40.8 °F 30.06 in SSW 5.0 mph 10.0 mph 96% 0.00 in 65.00 W/m2
12:45 41.9 °F 40.8 °F 30.06 in South 3.0 mph 10.0 mph 96% 0.00 in 128.00 W/m2
12:50 41.8 °F 40.8 °F 30.06 in South 4.0 mph 7.0 mph 96% 0.00 in 91.00 W/m2
12:55 41.9 °F 40.8 °F 30.05 in South 7.0 mph 14.0 mph 96% 0.00 in 102.00 W/m2
13:00 41.9 °F 40.8 °F 30.05 in South 6.0 mph 13.0 mph 96% 0.00 in 128.00 W/m2
13:05 42.0 °F 40.9 °F 30.06 in South 6.0 mph 11.0 mph 96% 0.00 in 93.00 W/m2
13:10 42.0 °F 40.9 °F 30.05 in Calm   9.0 mph 96% 0.00 in 137.00 W/m2
13:15 42.0 °F 40.9 °F 30.04 in South 7.0 mph 10.0 mph 96% 0.00 in 158.00 W/m2
13:20 42.2 °F 41.1 °F 30.04 in South 9.0 mph 10.0 mph 96% 0.00 in 142.00 W/m2
13:25 42.3 °F 41.2 °F 30.05 in South 4.0 mph 12.0 mph 96% 0.00 in 206.00 W/m2
13:30 42.4 °F 41.3 °F 30.04 in SSE 4.0 mph 12.0 mph 96% 0.00 in 156.00 W/m2
13:35 42.4 °F 41.3 °F 30.03 in SSW 5.0 mph 13.0 mph 96% 0.00 in 162.00 W/m2
13:40 42.5 °F 41.4 °F 30.04 in South 11.0 mph 14.0 mph 96% 0.00 in 146.00 W/m2
13:45 42.6 °F 41.5 °F 30.05 in South 10.0 mph 16.0 mph 96% 0.00 in 128.00 W/m2
13:50 42.7 °F 41.6 °F 30.05 in SSW 4.0 mph 12.0 mph 96% 0.00 in 153.00 W/m2
13:55 42.7 °F 41.6 °F 30.05 in SSW 5.0 mph 17.0 mph 96% 0.00 in 93.00 W/m2
14:01 42.5 °F 41.4 °F 30.05 in SSE 9.0 mph 17.0 mph 96% 0.00 in 111.00 W/m2
14:05 42.4 °F 41.3 °F 30.05 in SSW 4.0 mph 13.0 mph 96% 0.00 in 69.00 W/m2
14:11 42.3 °F 41.2 °F 30.04 in SSW 11.0 mph 18.0 mph 96% 0.00 in 44.00 W/m2
14:16 42.1 °F 41.0 °F 30.04 in SSW 15.0 mph 15.0 mph 96% 0.00 in 46.00 W/m2
14:21 42.1 °F 41.0 °F 30.04 in South 12.0 mph 16.0 mph 96% 0.00 in 18.00 W/m2
14:26 42.1 °F 41.0 °F 30.04 in South 10.0 mph 14.0 mph 96% 0.00 in 25.00 W/m2
14:31 42.0 °F 40.9 °F 30.05 in South 12.0 mph 15.0 mph 96% 0.00 in 12.00 W/m2
14:36 42.0 °F 40.9 °F 30.05 in SSW 15.0 mph 20.0 mph 96% 0.00 in 32.00 W/m2
14:41 42.0 °F 40.9 °F 30.05 in SW 3.0 mph 14.0 mph 96% 0.00 in 44.00 W/m2
14:46 42.0 °F 40.9 °F 30.04 in South 5.0 mph 24.0 mph 96% 0.00 in 65.00 W/m2
14:51 42.0 °F 40.9 °F 30.03 in SSW 11.0 mph 20.0 mph 96% 0.00 in 63.00 W/m2
14:56 42.0 °F 40.9 °F 30.02 in SW 7.0 mph 18.0 mph 96% 0.00 in 63.00 W/m2
15:01 42.0 °F 40.9 °F 30.03 in South 8.0 mph 24.0 mph 96% 0.00 in 60.00 W/m2
15:06 42.1 °F 41.0 °F 30.04 in SSE 16.0 mph 23.0 mph 96% 0.00 in 79.00 W/m2
15:11 42.1 °F 41.0 °F 30.05 in South 11.0 mph 21.0 mph 96% 0.00 in 51.00 W/m2
15:16 42.1 °F 41.0 °F 30.05 in South 6.0 mph 18.0 mph 96% 0.00 in 28.00 W/m2
15:21 42.2 °F 41.1 °F 30.05 in South 7.0 mph 20.0 mph 96% 0.00 in 37.00 W/m2
15:26 42.3 °F 41.2 °F 30.04 in SSE 9.0 mph 20.0 mph 96% 0.00 in 42.00 W/m2
15:31 42.3 °F 41.2 °F 30.04 in South 9.0 mph 21.0 mph 96% 0.00 in 21.00 W/m2
15:36 42.3 °F 41.2 °F 30.04 in South 9.0 mph 16.0 mph 96% 0.00 in 7.00 W/m2
15:41 42.4 °F 41.3 °F 30.05 in South 7.0 mph 19.0 mph 96% 0.00 in 16.00 W/m2
15:46 42.5 °F 41.4 °F 30.05 in SSW 3.0 mph 17.0 mph 96% 0.00 in 25.00 W/m2
15:51 42.5 °F 41.4 °F 30.06 in South 15.0 mph 17.0 mph 96% 0.00 in 14.00 W/m2
15:56 42.6 °F 41.5 °F 30.06 in SSE 4.0 mph 22.0 mph 96% 0.00 in 7.00 W/m2
16:01 42.6 °F 41.5 °F 30.06 in SSE 4.0 mph 17.0 mph 96% 0.00 in 7.00 W/m2
16:06 42.7 °F 41.6 °F 30.06 in South 6.0 mph 13.0 mph 96% 0.00 in 11.00 W/m2
16:11 42.7 °F 41.6 °F 30.05 in SSW 10.0 mph 17.0 mph 96% 0.00 in 12.00 W/m2
16:16 42.7 °F 41.6 °F 30.04 in SSW 3.0 mph 20.0 mph 96% 0.00 in 5.00 W/m2
16:21 42.7 °F 41.6 °F 30.05 in SSW 17.0 mph 21.0 mph 96% 0.00 in 7.00 W/m2
16:26 42.7 °F 41.6 °F 30.05 in South 7.0 mph 18.0 mph 96% 0.00 in 0.00 W/m2
16:31 42.8 °F 41.7 °F 30.05 in South 7.0 mph 25.0 mph 96% 0.00 in 7.00 W/m2
16:36 42.8 °F 41.7 °F 30.05 in SSW 17.0 mph 20.0 mph 96% 0.00 in 0.00 W/m2
16:41 42.8 °F 41.7 °F 30.05 in South 14.0 mph 30.0 mph 96% 0.00 in 0.00 W/m2
16:46 42.6 °F 41.5 °F 30.05 in SE 11.0 mph 25.0 mph 96% 0.04 in 0.00 W/m2
16:51 42.6 °F 41.5 °F 30.06 in SW 18.0 mph 27.0 mph 96% 0.04 in 0.00 W/m2
16:56 42.7 °F 41.6 °F 30.05 in South 8.0 mph 20.0 mph 96% 0.04 in 0.00 W/m2
17:01 42.8 °F 41.7 °F 30.05 in SSW 20.0 mph 22.0 mph 96% 0.04 in 0.00 W/m2
17:06 42.8 °F 41.7 °F 30.05 in SW 5.0 mph 24.0 mph 96% 0.00 in 0.00 W/m2
17:11 42.7 °F 41.6 °F 30.06 in SW 16.0 mph 21.0 mph 96% 0.00 in 0.00 W/m2
17:16 42.5 °F 41.4 °F 30.05 in South 5.0 mph 7.0 mph 96% 0.00 in 0.00 W/m2
17:21 42.2 °F 41.1 °F 30.05 in SW 6.0 mph 6.0 mph 96% 0.00 in 0.00 W/m2
17:26 42.0 °F 40.9 °F 30.05 in Calm     96% 0.25 in 0.00 W/m2
17:31 42.0 °F 40.9 °F 30.05 in SSW 11.0 mph 14.0 mph 96% 0.25 in 0.00 W/m2
17:36 42.0 °F 40.9 °F 30.05 in Calm   4.0 mph 96% 0.10 in 0.00 W/m2
17:41 42.2 °F 41.1 °F 30.04 in South 11.0 mph 19.0 mph 96% 0.16 in 0.00 W/m2
17:46 42.3 °F 41.2 °F 30.05 in SSE 10.0 mph 12.0 mph 96% 0.07 in 0.00 W/m2
17:51 42.5 °F 41.4 °F 30.04 in SE 8.0 mph 12.0 mph 96% 0.04 in 0.00 W/m2
17:56 42.7 °F 41.6 °F 30.05 in South 18.0 mph 18.0 mph 96% 0.04 in 0.00 W/m2
18:01 42.8 °F 41.7 °F 30.05 in South 9.0 mph 11.0 mph 96% 0.04 in 0.00 W/m2
18:06 42.8 °F 41.7 °F 30.05 in SSW 7.0 mph 13.0 mph 96% 0.04 in 0.00 W/m2
18:11 42.8 °F 41.7 °F 30.05 in SSW 13.0 mph 16.0 mph 96% 0.00 in 0.00 W/m2
18:16 42.8 °F 41.7 °F 30.05 in SSE 8.0 mph 14.0 mph 96% 0.00 in 0.00 W/m2
18:21 42.8 °F 41.7 °F 30.04 in SW 4.0 mph 11.0 mph 96% 0.06 in 0.00 W/m2
18:26 42.8 °F 41.7 °F 30.04 in SW 3.0 mph 16.0 mph 96% 0.21 in 0.00 W/m2
18:31 42.8 °F 41.7 °F 30.05 in SSW 5.0 mph 11.0 mph 96% 0.08 in 0.00 W/m2
18:36 42.8 °F 41.7 °F 30.05 in SSW 8.0 mph 13.0 mph 96% 0.05 in 0.00 W/m2
18:41 42.7 °F 41.6 °F 30.04 in SSE 12.0 mph 12.0 mph 96% 0.04 in 0.00 W/m2
18:46 42.7 °F 41.6 °F 30.04 in South 15.0 mph 15.0 mph 96% 0.04 in 0.00 W/m2
18:51 42.7 °F 41.6 °F 30.04 in SSE 2.0 mph 12.0 mph 96% 0.05 in 0.00 W/m2
18:56 42.6 °F 41.5 °F 30.04 in SW 8.0 mph 23.0 mph 96% 0.14 in 0.00 W/m2
19:01 42.5 °F 41.4 °F 30.04 in SSE 6.0 mph 13.0 mph 96% 0.14 in 0.00 W/m2
19:06 42.5 °F 41.4 °F 30.04 in South 6.0 mph 20.0 mph 96% 0.15 in 0.00 W/m2
19:11 42.4 °F 41.3 °F 30.05 in South 6.0 mph 14.0 mph 96% 0.12 in 0.00 W/m2
19:16 42.3 °F 41.2 °F 30.06 in SW 19.0 mph 19.0 mph 96% 0.06 in 0.00 W/m2
19:21 42.2 °F 41.1 °F 30.06 in SW 8.0 mph 18.0 mph 96% 0.05 in 0.00 W/m2
19:26 42.1 °F 41.0 °F 30.05 in South 13.0 mph 17.0 mph 96% 0.08 in 0.00 W/m2
19:31 42.0 °F 40.9 °F 30.05 in SSE 12.0 mph 14.0 mph 96% 0.08 in 0.00 W/m2
19:37 42.0 °F 40.9 °F 30.05 in Calm   7.0 mph 96% 0.06 in 0.00 W/m2
19:42 42.0 °F 40.9 °F 30.05 in SSW 8.0 mph 11.0 mph 96% 0.30 in 0.00 W/m2
19:47 42.0 °F 40.9 °F 30.05 in South 12.0 mph 13.0 mph 96% 0.18 in 0.00 W/m2
19:52 42.1 °F 41.0 °F 30.05 in SSW 11.0 mph 18.0 mph 96% 0.18 in 0.00 W/m2
19:57 42.2 °F 41.1 °F 30.06 in SSW 12.0 mph 30.0 mph 96% 0.10 in 0.00 W/m2
20:02 42.2 °F 41.1 °F 30.06 in SSW 12.0 mph 20.0 mph 96% 0.05 in 0.00 W/m2
20:07 42.2 °F 41.1 °F 30.06 in SW 13.0 mph 13.0 mph 96% 0.04 in 0.00 W/m2
20:12 42.2 °F 41.1 °F 30.06 in WSW 14.0 mph 20.0 mph 96% 0.00 in 0.00 W/m2
20:17 42.2 °F 41.1 °F 30.06 in WSW 9.0 mph 20.0 mph 96% 0.12 in 0.00 W/m2
20:22 42.1 °F 41.0 °F 30.06 in South 14.0 mph 14.0 mph 96% 0.09 in 0.00 W/m2
20:27 42.0 °F 40.9 °F 30.06 in SW 25.0 mph 27.0 mph 96% 0.06 in 0.00 W/m2
20:32 41.9 °F 40.8 °F 30.05 in South 8.0 mph 19.0 mph 96% 0.06 in 0.00 W/m2
20:37 41.9 °F 40.8 °F 30.05 in SSW 4.0 mph 20.0 mph 96% 0.05 in 0.00 W/m2
20:42 41.9 °F 40.8 °F 30.05 in SSW 18.0 mph 23.0 mph 96% 0.00 in 0.00 W/m2
20:47 41.9 °F 40.8 °F 30.05 in SSW 14.0 mph 23.0 mph 96% 0.00 in 0.00 W/m2
20:52 42.0 °F 40.9 °F 30.05 in South 5.0 mph 15.0 mph 96% 0.00 in 0.00 W/m2
20:57 42.1 °F 41.0 °F 30.04 in SSW 9.0 mph 19.0 mph 96% 0.00 in 0.00 W/m2
21:02 42.2 °F 41.1 °F 30.05 in SSW 13.0 mph 15.0 mph 96% 0.00 in 0.00 W/m2
21:07 42.2 °F 41.1 °F 30.05 in SSW 22.0 mph 25.0 mph 96% 0.00 in 0.00 W/m2
21:12 42.2 °F 41.1 °F 30.05 in SW 7.0 mph 21.0 mph 96% 0.00 in 0.00 W/m2
21:17 42.2 °F 41.1 °F 30.06 in SSW 24.0 mph 24.0 mph 96% 0.00 in 0.00 W/m2
21:22 42.2 °F 41.1 °F 30.06 in South 11.0 mph 13.0 mph 96% 0.00 in 0.00 W/m2
21:27 42.2 °F 41.1 °F 30.06 in SSW 5.0 mph 16.0 mph 96% 0.00 in 0.00 W/m2
21:32 42.1 °F 41.0 °F 30.06 in SSE 20.0 mph 21.0 mph 96% 0.00 in 0.00 W/m2
21:37 42.1 °F 41.0 °F 30.06 in South 8.0 mph 18.0 mph 96% 0.00 in 0.00 W/m2
21:42 42.2 °F 41.1 °F 30.06 in SSW 10.0 mph 18.0 mph 96% 0.00 in 0.00 W/m2
21:47 42.2 °F 41.1 °F 30.06 in SW 20.0 mph 22.0 mph 96% 0.00 in 0.00 W/m2
21:52 42.3 °F 41.2 °F 30.06 in SSE 22.0 mph 22.0 mph 96% 0.00 in 0.00 W/m2
21:57 42.4 °F 41.3 °F 30.05 in SSW 20.0 mph 24.0 mph 96% 0.00 in 0.00 W/m2
22:02 42.5 °F 41.4 °F 30.05 in SSW 5.0 mph 16.0 mph 96% 0.00 in 0.00 W/m2
22:07 42.5 °F 41.4 °F 30.06 in South 12.0 mph 15.0 mph 96% 0.00 in 0.00 W/m2
22:12 42.6 °F 41.5 °F 30.06 in SSW 11.0 mph 20.0 mph 96% 0.00 in 0.00 W/m2
22:17 42.6 °F 41.5 °F 30.06 in South 20.0 mph 24.0 mph 96% 0.00 in 0.00 W/m2
22:22 42.7 °F 41.6 °F 30.06 in SSW 13.0 mph 13.0 mph 96% 0.00 in 0.00 W/m2
22:27 42.7 °F 41.6 °F 30.06 in SSW 9.0 mph 19.0 mph 96% 0.00 in 0.00 W/m2
22:32 42.8 °F 41.7 °F 30.06 in SSW 3.0 mph 17.0 mph 96% 0.00 in 0.00 W/m2
22:37 42.8 °F 41.7 °F 30.06 in SW 11.0 mph 22.0 mph 96% 0.04 in 0.00 W/m2
22:42 42.9 °F 41.8 °F 30.06 in SW 26.0 mph 27.0 mph 96% 0.04 in 0.00 W/m2
22:47 42.9 °F 41.8 °F 30.06 in Calm   19.0 mph 96% 0.04 in 0.00 W/m2
22:52 42.9 °F 41.8 °F 30.06 in SSW 12.0 mph 20.0 mph 96% 0.16 in 0.00 W/m2
22:57 43.0 °F 41.9 °F 30.06 in South 11.0 mph 23.0 mph 96% 0.46 in 0.00 W/m2
23:02 43.0 °F 41.9 °F 30.06 in South 13.0 mph 29.0 mph 96% 0.13 in 0.00 W/m2
23:07 42.9 °F 41.8 °F 30.06 in SE 15.0 mph 24.0 mph 96% 0.12 in 0.00 W/m2
23:12 43.0 °F 41.9 °F 30.06 in South 12.0 mph 21.0 mph 96% 0.07 in 0.00 W/m2
23:17 43.0 °F 41.9 °F 30.06 in South 15.0 mph 15.0 mph 96% 0.12 in 0.00 W/m2
23:22 43.0 °F 41.9 °F 30.06 in SW 11.0 mph 13.0 mph 96% 0.14 in 0.00 W/m2
23:27 43.0 °F 41.9 °F 30.06 in SW 10.0 mph 15.0 mph 96% 0.17 in 0.00 W/m2
23:32 43.0 °F 41.9 °F 30.06 in South 7.0 mph 19.0 mph 96% 0.15 in 0.00 W/m2
23:37 43.0 °F 41.9 °F 30.05 in SSE 7.0 mph 17.0 mph 96% 0.16 in 0.00 W/m2
23:43 43.1 °F 42.0 °F 30.06 in SSE 2.0 mph 14.0 mph 96% 0.17 in 0.00 W/m2
23:48 43.0 °F 41.9 °F 30.05 in SW 1.0 mph 11.0 mph 96% 0.25 in 0.00 W/m2
23:53 43.0 °F 41.9 °F 30.06 in SW 15.0 mph 24.0 mph 96% 0.23 in 0.00 W/m2
23:58 43.1 °F 42.0 °F 30.06 in SE 17.0 mph 26.0 mph 96% 0.19 in 0.00 W/m2
Foresthill Weather
 WU-history PHP script courtesy of   Juneau County Weather.
powered by Cumulus v1.9.3 (1059)
Ambient Weather VWS v14.00
Top Contact Website Map Copyright © 2007 - 2018 Foresthillweather.com Never base important decisions on this or any weather information obtained from the Internet